Time;durP1;ratioP1;P1;durP2;ratioP2;P2;SDS_P1;SDS_P2;PMS_P1;PMS_P2;Temp;Humidity;BMP_temperature;BMP_pressure;BME280_temperature;BME280_humidity;BME280_pressure;Samples;Min_cycle;Max_cycle;Signal;HPM_P1;HPM_P2
2021/03/09 00:09:01;;;;;;;2.38;1.10;;;17.30;34.20;;;;;;4826487;29;20213;-82
2021/03/09 00:28:56;;;;;;;1.73;1.13;;;17.30;34.10;;;;;;4839598;29;20244;-82
2021/03/09 00:32:16;;;;;;;;;;;;;;;;;;;;;
2021/03/09 01:42:32;;;;;;;1.80;1.10;;;17.20;34.60;;;;;;4827093;29;20235;-83
2021/03/09 02:29:47;;;;;;;2.72;1.30;;;17.10;34.80;;;;;;4903969;29;20243;-82
2021/03/09 06:02:28;;;;;;;1.58;1.05;;;17.00;34.20;;;;;;4884276;29;20235;-81
2021/03/09 06:04:55;;;;;;;1.63;1.10;;;17.10;33.90;;;;;;4902979;29;20164;-83
2021/03/09 06:09:59;;;;;;;1.00;0.60;;;17.00;34.20;;;;;;5379769;23;20461;-82
2021/03/09 06:12:26;;;;;;;1.00;0.80;;;17.00;33.90;;;;;;4880964;29;20205;-83
2021/03/09 06:14:59;;;;;;;1.27;0.80;;;17.10;33.90;;;;;;4850107;29;20206;-83
2021/03/09 06:17:30;;;;;;;0.88;0.80;;;17.00;34.00;;;;;;4849423;29;20200;-83
2021/03/09 06:19:56;;;;;;;1.13;0.65;;;17.00;33.90;;;;;;4849231;29;20180;-83
2021/03/09 06:22:47;;;;;;;1.20;0.95;;;17.00;33.80;;;;;;4848877;29;20181;-83
2021/03/09 06:25:24;;;;;;;1.83;0.80;;;17.00;34.10;;;;;;4849165;29;20241;-83
2021/03/09 06:28:47;;;;;;;;;;;;;;;;;;;;;
2021/03/09 06:31:27;;;;;;;2.25;0.80;;;17.10;33.90;;;;;;4867228;29;20212;-84
2021/03/09 06:34:21;;;;;;;2.05;0.80;;;17.10;33.70;;;;;;4850665;29;20184;-83
2021/03/09 06:37:35;;;;;;;0.90;0.80;;;17.00;33.60;;;;;;4864866;29;20180;-83
2021/03/09 06:40:03;;;;;;;1.13;0.68;;;17.00;33.80;;;;;;4865015;29;20185;-84
2021/03/09 06:42:30;;;;;;;0.82;0.73;;;17.10;33.70;;;;;;4851427;29;20183;-83
2021/03/09 06:45:07;;;;;;;1.00;0.70;;;17.00;33.70;;;;;;4882491;29;20165;-84
2021/03/09 06:47:49;;;;;;;1.45;0.90;;;17.10;33.50;;;;;;4847681;29;20262;-82
2021/03/09 06:50:32;;;;;;;1.92;0.80;;;17.10;33.70;;;;;;4852670;29;20252;-84
2021/03/09 06:53:47;;;;;;;1.65;1.05;;;17.10;33.70;;;;;;4853448;29;20260;-84
2021/03/09 06:56:27;;;;;;;1.00;0.82;;;17.10;33.60;;;;;;4868054;29;20184;-84
2021/03/09 06:59:35;;;;;;;0.85;0.77;;;17.00;33.70;;;;;;4851152;29;20191;-82
2021/03/09 07:06:19;;;;;;;0.95;0.88;;;17.00;34.10;;;;;;4807468;30;20192;-82
2021/03/09 07:15:51;;;;;;;0.82;0.80;;;17.10;34.00;;;;;;4820196;29;20185;-82
2021/03/09 07:18:24;;;;;;;0.80;0.75;;;17.00;34.50;;;;;;4809551;29;20264;-81
2021/03/09 07:21:03;;;;;;;1.38;0.80;;;17.00;34.00;;;;;;4790663;29;20186;-82
2021/03/09 07:23:30;;;;;;;1.10;0.85;;;17.00;33.90;;;;;;4807044;29;20326;-82
2021/03/09 07:26:08;;;;;;;1.33;0.80;;;17.10;33.90;;;;;;4803868;29;20214;-81
2021/03/09 07:28:44;;;;;;;1.35;0.80;;;17.00;33.80;;;;;;4815477;29;20194;-81
2021/03/09 07:31:15;;;;;;;1.42;0.77;;;17.00;33.70;;;;;;4823187;29;20654;-81
2021/03/09 07:33:43;;;;;;;1.20;0.80;;;17.00;33.70;;;;;;4775387;30;20196;-81
2021/03/09 07:36:58;;;;;;;0.75;0.73;;;17.00;33.70;;;;;;4788399;30;20644;-82
2021/03/09 07:39:26;;;;;;;1.20;0.88;;;17.00;33.70;;;;;;4786434;30;20294;-81
2021/03/09 07:42:30;;;;;;;0.70;0.70;;;17.10;33.40;;;;;;4809792;29;20193;-80
2021/03/09 07:44:59;;;;;;;1.02;0.52;;;17.10;33.30;;;;;;4786525;30;20195;-81
2021/03/09 07:47:28;;;;;;;1.48;0.70;;;17.20;33.20;;;;;;4784874;30;20203;-81
2021/03/09 07:50:10;;;;;;;1.13;0.70;;;17.20;33.30;;;;;;4768712;30;20675;-80
2021/03/09 07:52:37;;;;;;;0.82;0.80;;;17.20;33.40;;;;;;4783723;30;20183;-81
2021/03/09 07:55:05;;;;;;;0.80;0.63;;;17.10;33.40;;;;;;4782744;30;20206;-80
2021/03/09 07:58:20;;;;;;;1.25;0.60;;;17.20;33.40;;;;;;4807196;29;20174;-81
2021/03/09 08:00:58;;;;;;;1.38;0.90;;;17.20;33.50;;;;;;4796543;29;20227;-80
2021/03/09 08:04:07;;;;;;;0.80;0.73;;;17.20;33.30;;;;;;4781719;30;20302;-80
2021/03/09 08:07:27;;;;;;;1.70;0.90;;;17.20;33.40;;;;;;4726319;30;20193;-81
2021/03/09 08:10:41;;;;;;;0.98;0.90;;;17.20;33.40;;;;;;4727877;30;20261;-81
2021/03/09 08:13:15;;;;;;;1.95;0.90;;;17.20;33.30;;;;;;4727212;30;20229;-80
2021/03/09 08:15:44;;;;;;;1.40;0.90;;;17.20;33.30;;;;;;4732399;30;20193;-80
2021/03/09 08:18:39;;;;;;;0.77;0.77;;;17.20;33.40;;;;;;4715025;30;20194;-80
2021/03/09 08:21:10;;;;;;;1.48;0.70;;;17.20;33.30;;;;;;4724638;30;20210;-80
2021/03/09 08:23:41;;;;;;;1.02;0.70;;;17.30;33.20;;;;;;4664743;30;20725;-80
2021/03/09 08:26:14;;;;;;;1.25;0.70;;;17.30;33.20;;;;;;4692994;30;20195;-80
2021/03/09 08:28:47;;;;;;;0.80;0.50;;;17.30;33.30;;;;;;4692800;30;20198;-80
2021/03/09 08:31:27;;;;;;;1.08;0.75;;;17.30;33.20;;;;;;4677504;30;20203;-80
2021/03/09 08:34:11;;;;;;;0.80;0.80;;;17.30;33.30;;;;;;4692400;30;20183;-80
2021/03/09 08:36:44;;;;;;;1.65;0.73;;;17.10;33.20;;;;;;4737467;29;20189;-80
2021/03/09 08:39:40;;;;;;;1.25;0.80;;;17.30;33.20;;;;;;4807048;29;20189;-81
2021/03/09 08:46:10;;;;;;;1.52;0.90;;;17.30;33.20;;;;;;4793086;30;20195;-81
2021/03/09 08:49:02;;;;;;;1.90;0.80;;;17.30;33.30;;;;;;4790927;30;20206;-80
2021/03/09 08:51:57;;;;;;;0.93;0.75;;;17.20;33.20;;;;;;4764776;30;20728;-81
2021/03/09 08:55:06;;;;;;;1.77;0.77;;;17.20;33.50;;;;;;4794620;30;20192;-81
2021/03/09 08:57:32;;;;;;;2.50;0.75;;;17.20;33.50;;;;;;4773394;30;20259;-81
2021/03/09 09:00:06;;;;;;;2.92;0.73;;;17.30;33.50;;;;;;4768583;30;20363;-81
2021/03/09 09:02:32;;;;;;;1.85;0.70;;;17.30;33.50;;;;;;4787413;29;20183;-81
2021/03/09 09:05:08;;;;;;;6.72;0.90;;;17.20;33.60;;;;;;4800591;30;20209;-80
2021/03/09 09:07:47;;;;;;;0.80;0.70;;;17.20;33.70;;;;;;4809741;29;20194;-79
2021/03/09 09:10:22;;;;;;;1.88;0.80;;;17.20;33.70;;;;;;4792974;30;20222;-80
2021/03/09 09:13:05;;;;;;;1.05;0.63;;;17.20;33.60;;;;;;4795968;29;20750;-80
2021/03/09 09:15:45;;;;;;;1.63;0.73;;;17.30;33.70;;;;;;4797987;29;20195;-80
2021/03/09 09:19:02;;;;;;;;;;;;;;;;;;;;;
2021/03/09 09:22:03;;;;;;;3.70;0.70;;;17.20;33.50;;;;;;4848900;29;20715;-79
2021/03/09 09:24:29;;;;;;;2.55;0.80;;;17.20;33.60;;;;;;4836750;29;20520;-79
2021/03/09 09:27:02;;;;;;;3.78;0.80;;;17.30;33.40;;;;;;4820184;29;20215;-80
2021/03/09 09:30:09;;;;;;;2.40;0.82;;;17.30;33.50;;;;;;4849086;29;20193;-80
2021/03/09 09:39:42;;;;;;;1.15;0.80;;;17.30;33.50;;;;;;4817206;29;20666;-80
2021/03/09 09:42:22;;;;;;;0.77;0.60;;;17.30;33.60;;;;;;4786992;29;20198;-79
2021/03/09 09:44:47;;;;;;;0.80;0.68;;;17.20;33.60;;;;;;4787998;29;20294;-79
2021/03/09 09:47:57;;;;;;;1.45;0.90;;;17.30;33.60;;;;;;4787105;29;20218;-79
2021/03/09 09:50:43;;;;;;;1.52;0.70;;;17.20;33.70;;;;;;4801785;29;20680;-81
2021/03/09 09:53:12;;;;;;;3.55;0.70;;;17.30;33.60;;;;;;4804478;29;20270;-79
2021/03/09 09:55:47;;;;;;;5.30;1.05;;;17.30;33.80;;;;;;4817322;29;20294;-80
2021/03/09 09:58:14;;;;;;;0.95;0.77;;;17.30;33.70;;;;;;4780380;29;20262;-80
2021/03/09 10:00:43;;;;;;;0.75;0.73;;;17.30;33.70;;;;;;4779054;29;20546;-80
2021/03/09 10:03:15;;;;;;;1.33;0.70;;;17.30;33.60;;;;;;4779371;29;20190;-80
2021/03/09 10:05:42;;;;;;;1.48;0.70;;;17.40;33.50;;;;;;4798226;29;20167;-80
2021/03/09 10:08:09;;;;;;;0.80;0.63;;;17.40;33.30;;;;;;4810128;29;20225;-80
2021/03/09 10:10:36;;;;;;;2.38;0.70;;;17.50;33.40;;;;;;4813368;29;20302;-80
2021/03/09 10:13:23;;;;;;;1.58;0.73;;;17.40;33.40;;;;;;4796212;29;20218;-81
2021/03/09 10:15:49;;;;;;;0.93;0.68;;;17.40;33.40;;;;;;4806647;29;20180;-81
2021/03/09 10:18:29;;;;;;;2.13;1.10;;;17.40;33.40;;;;;;4849059;29;20172;-79
2021/03/09 10:21:12;;;;;;;0.90;0.60;;;17.40;33.40;;;;;;4833255;29;20184;-80
2021/03/09 10:23:57;;;;;;;2.42;0.75;;;17.40;33.50;;;;;;4853700;29;20172;-80
2021/03/09 10:26:38;;;;;;;1.17;0.80;;;17.40;33.50;;;;;;4852643;29;20171;-80
2021/03/09 10:29:10;;;;;;;1.08;0.80;;;17.40;33.50;;;;;;4864702;29;20205;-81
2021/03/09 10:31:42;;;;;;;1.10;0.80;;;17.50;33.40;;;;;;4867273;29;20173;-80
2021/03/09 10:34:09;;;;;;;0.85;0.63;;;17.50;33.30;;;;;;4853821;29;20176;-80
2021/03/09 10:37:02;;;;;;;1.30;0.80;;;17.60;33.40;;;;;;4868450;29;20213;-80
2021/03/09 10:39:39;;;;;;;1.30;0.70;;;17.60;33.40;;;;;;4847925;29;20212;-80
2021/03/09 10:42:24;;;;;;;1.63;0.80;;;17.60;33.40;;;;;;4865033;29;20156;-81
2021/03/09 10:44:50;;;;;;;1.65;0.77;;;17.50;33.40;;;;;;4854010;29;20177;-81
2021/03/09 10:47:25;;;;;;;0.80;0.60;;;17.60;33.40;;;;;;4834449;29;20525;-80
2021/03/09 10:49:51;;;;;;;0.68;0.60;;;17.60;33.50;;;;;;4849095;29;20200;-80
2021/03/09 10:52:18;;;;;;;3.90;0.80;;;17.60;33.50;;;;;;4846976;29;20165;-80
2021/03/09 10:54:44;;;;;;;0.95;0.68;;;17.60;33.50;;;;;;4849853;29;20161;-80
2021/03/09 10:57:13;;;;;;;1.17;0.80;;;17.60;33.50;;;;;;4839505;29;20208;-80
2021/03/09 10:59:40;;;;;;;2.42;0.80;;;17.60;33.50;;;;;;4842364;29;20196;-79
2021/03/09 11:02:07;;;;;;;1.90;0.70;;;17.60;34.20;;;;;;4852801;29;20522;-81
2021/03/09 11:04:33;;;;;;;0.98;0.80;;;17.60;33.50;;;;;;4823682;29;20172;-80
2021/03/09 11:06:59;;;;;;;2.65;0.80;;;17.60;33.40;;;;;;4828078;29;20628;-81
2021/03/09 11:09:25;;;;;;;2.10;0.70;;;17.60;33.40;;;;;;4845867;29;20193;-80
2021/03/09 11:11:51;;;;;;;0.80;0.60;;;17.70;33.40;;;;;;4844654;29;20216;-80
2021/03/09 11:14:19;;;;;;;1.77;0.50;;;17.70;33.40;;;;;;4864915;29;20172;-81
2021/03/09 11:16:46;;;;;;;2.60;0.70;;;17.70;33.40;;;;;;4842889;29;20163;-81
2021/03/09 11:19:12;;;;;;;2.10;1.10;;;17.60;33.50;;;;;;4869926;29;20161;-81
2021/03/09 11:21:41;;;;;;;0.93;0.70;;;17.60;33.70;;;;;;4839542;29;20165;-81
2021/03/09 11:24:13;;;;;;;1.10;0.60;;;17.60;33.70;;;;;;4831787;29;20184;-82
2021/03/09 11:26:39;;;;;;;0.98;0.70;;;17.60;33.70;;;;;;4856721;29;20168;-81
2021/03/09 11:29:12;;;;;;;1.92;0.68;;;17.60;33.70;;;;;;4842819;29;20197;-81
2021/03/09 11:31:38;;;;;;;1.10;0.60;;;17.60;33.80;;;;;;4839408;29;20181;-81
2021/03/09 11:34:04;;;;;;;0.82;0.75;;;17.60;33.80;;;;;;4833200;29;20503;-81
2021/03/09 11:36:37;;;;;;;0.77;0.70;;;17.50;33.90;;;;;;4819336;29;20165;-80
2021/03/09 11:39:04;;;;;;;0.88;0.75;;;17.50;33.80;;;;;;4838462;29;20161;-80
2021/03/09 11:41:30;;;;;;;1.00;0.77;;;17.60;33.70;;;;;;4840616;29;20168;-80
2021/03/09 11:43:56;;;;;;;0.88;0.80;;;17.60;33.80;;;;;;4855937;29;20172;-81
2021/03/09 11:46:25;;;;;;;1.73;0.60;;;17.70;33.70;;;;;;4859619;29;20251;-83
2021/03/09 11:48:50;;;;;;;4.15;0.68;;;17.60;33.70;;;;;;4842314;29;20180;-82
2021/03/09 11:51:16;;;;;;;0.90;0.70;;;17.70;33.70;;;;;;4824124;29;20169;-81
2021/03/09 11:53:42;;;;;;;0.80;0.60;;;17.60;33.80;;;;;;4839075;29;20655;-81
2021/03/09 11:56:09;;;;;;;0.73;0.52;;;17.60;33.90;;;;;;4855557;29;20648;-82
2021/03/09 12:02:38;;;;;;;0.60;0.43;;;17.70;33.80;;;;;;4871657;29;20675;-81
2021/03/09 12:05:32;;;;;;;1.08;0.85;;;17.70;33.70;;;;;;4837636;29;20196;-82
2021/03/09 12:07:58;;;;;;;1.95;0.80;;;17.70;33.70;;;;;;4842797;29;20636;-80
2021/03/09 12:10:24;;;;;;;1.25;0.70;;;17.70;33.70;;;;;;4828013;29;20234;-81
2021/03/09 12:12:53;;;;;;;1.23;0.60;;;17.70;33.80;;;;;;4830351;29;20233;-82
2021/03/09 12:15:19;;;;;;;1.67;0.77;;;17.70;33.90;;;;;;4832603;29;20203;-81
2021/03/09 12:17:45;;;;;;;1.05;0.82;;;17.70;33.70;;;;;;4841030;29;20180;-81
2021/03/09 12:20:31;;;;;;;1.38;0.82;;;17.60;33.80;;;;;;4858490;29;20198;-80
2021/03/09 12:23:39;;;;;;;0.88;0.63;;;17.60;34.00;;;;;;4831176;29;20233;-80
2021/03/09 12:26:11;;;;;;;1.08;0.55;;;17.60;33.90;;;;;;4853729;29;20199;-81
2021/03/09 12:28:46;;;;;;;5.22;0.80;;;17.70;33.90;;;;;;4837482;29;20185;-81
2021/03/09 12:32:13;;;;;;;1.52;0.68;;;17.70;33.80;;;;;;4854859;29;20584;-81
2021/03/09 12:34:45;;;;;;;3.92;1.00;;;17.60;33.90;;;;;;4800810;29;20186;-80
2021/03/09 12:37:15;;;;;;;0.70;0.50;;;17.70;33.90;;;;;;4800811;29;20326;-81
2021/03/09 13:04:20;;;;;;;0.85;0.60;;;17.80;33.70;;;;;;4781957;30;20180;-81
2021/03/09 13:07:06;;;;;;;0.57;0.55;;;17.80;33.70;;;;;;4782751;30;20176;-81
2021/03/09 13:12:44;;;;;;;0.98;0.57;;;17.80;33.70;;;;;;4782234;30;20227;-81
2021/03/09 13:16:16;;;;;;;;;;;;;;;;;;;;;
2021/03/09 13:29:10;;;;;;;0.75;0.60;;;17.90;33.70;;;;;;4728612;30;20197;-81
2021/03/09 13:41:46;;;;;;;0.93;0.60;;;17.70;34.10;;;;;;4677275;30;20673;-81
2021/03/09 13:48:00;;;;;;;0.60;0.57;;;17.70;33.90;;;;;;4713234;30;20222;-81
2021/03/09 13:54:40;;;;;;;0.80;0.80;;;17.60;34.10;;;;;;4694446;30;20187;-80
2021/03/09 13:57:19;;;;;;;0.90;0.60;;;17.60;34.10;;;;;;4680233;30;20214;-80
2021/03/09 14:00:09;;;;;;;0.60;0.60;;;17.60;34.10;;;;;;4698409;30;20195;-81
2021/03/09 14:02:51;;;;;;;1.30;0.70;;;17.70;34.10;;;;;;4686992;30;20656;-81
2021/03/09 14:06:03;;;;;;;0.73;0.60;;;17.70;34.10;;;;;;4686043;30;20296;-81
2021/03/09 14:09:46;;;;;;;;;;;;;;;;;;;;;
2021/03/09 14:12:26;;;;;;;0.65;0.60;;;17.60;34.30;;;;;;4708979;30;20329;-80
2021/03/09 14:15:11;;;;;;;1.13;0.70;;;17.70;34.10;;;;;;4684015;30;20194;-81
2021/03/09 14:28:19;;;;;;;2.97;1.00;;;17.70;34.60;;;;;;4641796;31;20192;-79
2021/03/09 14:42:26;;;;;;;0.77;0.60;;;18.00;34.00;;;;;;4676788;30;20534;-79
2021/03/09 14:45:20;;;;;;;0.95;0.65;;;18.00;33.90;;;;;;4657024;30;20309;-80
2021/03/09 14:47:48;;;;;;;0.95;0.60;;;18.00;33.90;;;;;;4660156;30;20179;-80
2021/03/09 14:50:28;;;;;;;0.80;0.52;;;18.00;33.80;;;;;;4649818;30;20318;-81
2021/03/09 14:52:59;;;;;;;1.50;0.50;;;18.10;33.90;;;;;;4671466;30;20195;-80
2021/03/09 14:58:46;;;;;;;1.02;0.60;;;18.20;33.50;;;;;;4781500;30;20260;-80
2021/03/09 15:01:12;;;;;;;1.52;0.60;;;18.10;33.90;;;;;;4770585;30;20195;-80
2021/03/09 15:03:48;;;;;;;4.03;0.93;;;18.00;34.20;;;;;;4756751;30;20278;-80
2021/03/09 15:06:25;;;;;;;7.80;1.05;;;17.90;34.30;;;;;;4783513;30;20171;-80
2021/03/09 15:08:57;;;;;;;9.30;1.10;;;17.90;34.30;;;;;;4800115;29;20221;-81
2021/03/09 15:11:23;;;;;;;7.70;1.40;;;18.00;34.20;;;;;;4841260;29;20217;-80
2021/03/09 15:13:50;;;;;;;15.82;1.35;;;18.00;34.20;;;;;;4858854;29;20198;-81
2021/03/09 15:16:18;;;;;;;3.30;1.05;;;18.00;34.50;;;;;;4846969;29;20198;-79
2021/03/09 15:18:45;;;;;;;8.90;1.10;;;18.00;34.60;;;;;;4853146;29;20645;-80
2021/03/09 15:21:13;;;;;;;7.00;1.17;;;18.00;34.60;;;;;;4836668;29;20158;-81
2021/03/09 15:23:46;;;;;;;5.35;1.20;;;18.00;34.60;;;;;;4837592;29;20158;-80
2021/03/09 15:26:13;;;;;;;6.43;1.02;;;18.00;34.60;;;;;;4825759;29;20190;-81
2021/03/09 15:28:39;;;;;;;7.45;1.08;;;18.00;34.60;;;;;;4857060;29;20166;-80
2021/03/09 15:31:05;;;;;;;1.77;0.90;;;18.00;34.50;;;;;;4835404;29;20204;-80
2021/03/09 15:34:04;;;;;;;7.80;0.90;;;18.00;34.40;;;;;;4820424;29;20174;-80
2021/03/09 15:36:40;;;;;;;2.83;0.93;;;17.90;34.70;;;;;;4837695;29;20516;-81
2021/03/09 15:39:21;;;;;;;4.28;0.80;;;17.90;34.90;;;;;;4840042;29;20192;-81
2021/03/09 15:43:36;;;;;;;;;;;;;;;;;;;;;
2021/03/09 15:45:24;;;;;;;8.57;1.00;;;17.90;35.00;;;;;;4851527;29;20210;-81
2021/03/09 15:48:01;;;;;;;3.97;1.20;;;17.80;35.40;;;;;;4828714;29;20173;-80
2021/03/09 15:51:04;;;;;;;3.78;1.00;;;17.90;35.30;;;;;;4830032;29;20229;-81
2021/03/09 16:01:26;;;;;;;4.55;0.90;;;18.10;34.60;;;;;;4802678;30;20225;-80
2021/03/09 16:04:23;;;;;;;4.03;0.90;;;18.10;34.60;;;;;;4798682;30;20191;-81
2021/03/09 16:07:36;;;;;;;3.28;0.70;;;18.10;34.60;;;;;;4797003;30;20648;-80
2021/03/09 16:10:06;;;;;;;4.03;0.80;;;18.10;34.90;;;;;;4803101;30;20602;-80
2021/03/09 16:20:04;;;;;;;3.25;0.70;;;18.10;35.40;;;;;;4820466;29;20195;-79
2021/03/09 16:22:38;;;;;;;3.63;0.70;;;18.00;35.70;;;;;;4802225;30;20207;-80
2021/03/09 16:25:18;;;;;;;2.90;0.70;;;18.20;35.40;;;;;;4799199;30;20226;-79
2021/03/09 16:28:03;;;;;;;1.92;0.95;;;18.20;35.40;;;;;;4785746;30;20187;-80
2021/03/09 16:30:35;;;;;;;3.13;0.63;;;18.30;35.00;;;;;;4797431;30;20192;-81
2021/03/09 16:33:13;;;;;;;5.90;1.00;;;18.30;35.40;;;;;;4806702;29;20186;-80
2021/03/09 16:35:40;;;;;;;3.60;1.00;;;18.30;35.70;;;;;;4864977;29;20228;-80
2021/03/09 16:38:13;;;;;;;2.13;0.80;;;18.20;36.00;;;;;;4872985;29;20281;-80
2021/03/09 16:40:41;;;;;;;2.60;0.90;;;18.20;36.20;;;;;;4855736;29;20284;-81
2021/03/09 16:43:26;;;;;;;2.17;0.90;;;18.20;36.20;;;;;;4839772;29;20192;-80
2021/03/09 16:46:07;;;;;;;3.65;1.02;;;18.20;36.50;;;;;;4854225;29;20189;-79
2021/03/09 16:49:16;;;;;;;2.92;1.33;;;18.20;36.00;;;;;;4855517;29;20203;-80
2021/03/09 16:56:07;;;;;;;3.08;0.80;;;18.20;36.20;;;;;;4873997;29;20168;-80
2021/03/09 17:02:59;;;;;;;3.03;0.80;;;18.30;35.90;;;;;;4707553;30;20619;-80
2021/03/09 17:06:09;;;;;;;4.75;0.88;;;18.30;36.30;;;;;;4712862;30;20199;-81
2021/03/09 17:15:20;;;;;;;2.30;0.80;;;18.20;36.90;;;;;;4713877;30;20297;-80
2021/03/09 17:21:26;;;;;;;2.28;0.88;;;18.20;37.00;;;;;;4727966;30;20217;-80
2021/03/09 17:25:03;;;;;;;2.22;0.98;;;18.20;37.40;;;;;;4712255;30;20260;-80
2021/03/09 17:28:00;;;;;;;3.13;1.00;;;18.20;37.30;;;;;;4640741;31;20193;-80
2021/03/09 17:30:41;;;;;;;2.58;0.88;;;18.20;37.50;;;;;;4639682;30;20225;-80
2021/03/09 17:34:05;;;;;;;1.63;0.90;;;18.20;37.50;;;;;;4638485;31;20241;-79
2021/03/09 17:36:46;;;;;;;3.00;0.98;;;18.20;37.70;;;;;;4622010;31;20214;-79
2021/03/09 17:39:17;;;;;;;2.17;0.80;;;18.20;37.90;;;;;;4648938;30;20241;-80
2021/03/09 17:42:02;;;;;;;2.35;0.77;;;18.20;37.10;;;;;;4686834;30;20554;-79
2021/03/09 17:44:59;;;;;;;2.90;0.90;;;18.20;37.60;;;;;;4685832;30;20192;-80
2021/03/09 17:47:26;;;;;;;4.60;1.20;;;18.20;37.30;;;;;;4681882;30;20199;-80
2021/03/09 17:50:26;;;;;;;3.50;1.10;;;18.20;37.30;;;;;;4687520;30;20215;-80
2021/03/09 17:53:00;;;;;;;4.82;1.00;;;18.30;37.50;;;;;;4665820;30;20203;-81
2021/03/09 17:55:50;;;;;;;2.80;1.13;;;18.30;38.30;;;;;;4643902;30;20195;-80
2021/03/09 17:58:28;;;;;;;1.52;0.90;;;18.30;38.10;;;;;;4642225;30;20581;-80
2021/03/09 18:01:04;;;;;;;3.40;1.00;;;18.20;38.50;;;;;;4675648;30;21178;-81
2021/03/09 18:03:51;;;;;;;4.35;1.00;;;18.30;37.30;;;;;;4724926;30;20644;-80
2021/03/09 18:06:21;;;;;;;1.75;1.00;;;18.40;37.90;;;;;;4723603;30;20208;-81
2021/03/09 18:08:46;;;;;;;3.78;1.10;;;18.30;37.90;;;;;;4737226;30;20260;-81
2021/03/09 18:11:27;;;;;;;3.83;1.00;;;18.20;38.50;;;;;;4739154;30;20709;-81
2021/03/09 18:17:06;;;;;;;1.63;1.02;;;18.20;38.70;;;;;;4785281;30;20360;-81
2021/03/09 18:22:40;;;;;;;1.83;0.90;;;18.20;38.20;;;;;;4782621;30;20257;-80
2021/03/09 18:25:21;;;;;;;5.95;1.70;;;18.20;38.20;;;;;;4767644;30;20190;-79
2021/03/09 18:27:59;;;;;;;2.60;1.02;;;18.30;37.80;;;;;;4769289;30;20203;-81
2021/03/09 18:30:36;;;;;;;3.67;0.90;;;18.40;37.50;;;;;;4791487;29;20221;-80
2021/03/09 18:39:52;;;;;;;1.20;1.00;;;18.30;38.40;;;;;;4779940;30;20212;-82
2021/03/09 18:45:34;;;;;;;2.60;1.10;;;18.20;38.30;;;;;;4780928;30;20199;-81
2021/03/09 18:48:00;;;;;;;2.90;0.90;;;18.20;38.20;;;;;;4779124;30;20322;-81
2021/03/09 18:50:26;;;;;;;2.13;1.23;;;18.20;38.20;;;;;;4771512;30;20306;-82
2021/03/09 18:52:55;;;;;;;2.03;0.93;;;18.20;38.10;;;;;;4773837;30;20655;-79
2021/03/09 18:55:21;;;;;;;3.15;1.13;;;18.20;38.50;;;;;;4797422;30;20194;-80
2021/03/09 18:57:47;;;;;;;6.68;1.00;;;18.20;38.60;;;;;;4783261;30;20195;-80
2021/03/09 19:00:13;;;;;;;5.00;1.30;;;18.10;39.30;;;;;;4782707;30;20293;-80
2021/03/09 19:02:41;;;;;;;3.80;1.02;;;18.10;39.10;;;;;;4798538;30;20187;-80
2021/03/09 19:05:09;;;;;;;1.77;1.10;;;18.20;39.30;;;;;;4797690;30;20188;-80
2021/03/09 19:07:35;;;;;;;2.67;1.08;;;18.10;38.70;;;;;;4783306;30;20246;-81
2021/03/09 19:10:02;;;;;;;2.50;1.00;;;18.10;39.10;;;;;;4809885;29;20207;-81
2021/03/09 19:12:29;;;;;;;3.80;1.00;;;18.10;38.90;;;;;;4800675;29;20183;-81
2021/03/09 19:14:56;;;;;;;3.72;1.00;;;18.10;39.00;;;;;;4808520;29;20176;-80
2021/03/09 19:17:28;;;;;;;2.90;1.25;;;18.10;39.50;;;;;;4849792;29;20221;-80
2021/03/09 19:19:55;;;;;;;3.30;1.17;;;18.10;39.20;;;;;;4840184;29;20258;-79
2021/03/09 19:22:22;;;;;;;2.63;0.90;;;18.10;39.60;;;;;;4840425;29;20313;-80
2021/03/09 19:24:49;;;;;;;8.48;1.48;;;18.00;39.80;;;;;;4840803;29;20203;-79
2021/03/09 19:27:24;;;;;;;1.80;1.10;;;18.00;39.00;;;;;;4849122;29;20635;-79
2021/03/09 19:29:51;;;;;;;3.00;1.10;;;18.10;39.10;;;;;;4856604;29;20271;-80
2021/03/09 19:32:20;;;;;;;4.65;1.00;;;18.10;39.60;;;;;;4860774;29;20176;-78
2021/03/09 19:34:46;;;;;;;2.92;0.93;;;18.10;39.00;;;;;;4846639;29;20176;-80
2021/03/09 19:37:15;;;;;;;3.85;1.10;;;18.20;38.60;;;;;;4844349;29;20187;-80
2021/03/09 19:39:43;;;;;;;1.63;1.00;;;18.20;38.80;;;;;;4843554;29;20216;-80
2021/03/09 19:42:11;;;;;;;5.10;1.20;;;18.20;38.80;;;;;;4859390;29;20161;-80
2021/03/09 19:44:40;;;;;;;2.33;1.10;;;18.20;39.00;;;;;;4844319;29;20165;-81
2021/03/09 19:47:08;;;;;;;2.72;0.95;;;18.20;38.50;;;;;;4860260;29;20172;-80
2021/03/09 19:49:43;;;;;;;3.30;0.88;;;18.20;38.60;;;;;;4859507;29;20248;-80
2021/03/09 19:52:09;;;;;;;3.30;1.40;;;18.20;39.40;;;;;;4843520;29;20168;-80
2021/03/09 19:54:38;;;;;;;2.25;1.02;;;18.20;38.70;;;;;;4859308;29;20610;-80
2021/03/09 19:57:05;;;;;;;1.83;0.93;;;18.10;39.20;;;;;;4843777;29;20240;-80
2021/03/09 19:59:39;;;;;;;5.80;1.30;;;18.10;40.00;;;;;;4842638;29;20244;-79
2021/03/09 20:02:05;;;;;;;2.88;1.25;;;18.10;40.00;;;;;;4853260;29;20179;-80
2021/03/09 20:04:33;;;;;;;2.42;1.10;;;18.10;39.50;;;;;;4854347;29;20191;-80
2021/03/09 20:07:02;;;;;;;1.50;1.00;;;18.20;39.50;;;;;;4842603;29;20187;-79
2021/03/09 20:09:29;;;;;;;3.22;1.20;;;18.20;39.30;;;;;;4838648;29;20184;-80
2021/03/09 20:11:55;;;;;;;5.78;1.35;;;18.10;39.80;;;;;;4837659;29;20179;-80
2021/03/09 20:14:22;;;;;;;1.95;1.20;;;18.10;39.20;;;;;;4852374;29;20252;-80
2021/03/09 20:16:48;;;;;;;4.45;1.15;;;18.10;39.20;;;;;;4849828;29;20221;-82
2021/03/09 20:19:23;;;;;;;1.65;1.20;;;18.10;39.80;;;;;;4835427;29;20165;-81
2021/03/09 20:21:59;;;;;;;3.60;1.25;;;18.10;38.50;;;;;;4833100;29;20172;-81
2021/03/09 20:24:25;;;;;;;2.45;1.15;;;18.20;38.30;;;;;;4837016;29;20180;-81
2021/03/09 20:26:52;;;;;;;3.17;1.20;;;18.20;39.20;;;;;;4864673;29;20298;-82
2021/03/09 20:29:18;;;;;;;1.88;1.10;;;18.20;38.90;;;;;;4867390;29;20160;-82
2021/03/09 20:31:44;;;;;;;3.03;1.30;;;18.20;39.30;;;;;;4832666;29;20172;-81
2021/03/09 20:34:10;;;;;;;2.33;1.00;;;18.20;38.70;;;;;;4833338;29;20177;-81
2021/03/09 20:36:36;;;;;;;1.55;1.10;;;18.20;38.70;;;;;;4820098;29;20646;-81
2021/03/09 20:39:04;;;;;;;4.97;1.48;;;18.20;38.10;;;;;;4818541;29;20173;-81
2021/03/09 20:41:30;;;;;;;3.00;1.45;;;18.30;38.20;;;;;;4835578;29;20193;-81
2021/03/09 20:43:56;;;;;;;2.22;1.20;;;18.30;38.70;;;;;;4850592;29;20243;-80
2021/03/09 20:46:26;;;;;;;2.92;1.30;;;18.20;38.20;;;;;;4835226;29;20252;-81
2021/03/09 20:48:52;;;;;;;2.35;1.27;;;18.30;38.60;;;;;;4836406;29;20184;-80
2021/03/09 20:51:28;;;;;;;2.03;1.40;;;18.20;38.90;;;;;;4872531;29;20193;-80
2021/03/09 20:53:58;;;;;;;2.65;1.30;;;18.20;38.40;;;;;;4856031;29;20161;-83
2021/03/09 20:56:25;;;;;;;2.17;1.30;;;18.20;38.70;;;;;;4851146;29;20606;-82
2021/03/09 20:58:52;;;;;;;2.05;1.10;;;18.20;38.50;;;;;;4851703;29;20180;-82
2021/03/09 21:01:17;;;;;;;1.92;1.30;;;18.20;38.90;;;;;;4851313;29;20636;-81
2021/03/09 21:03:52;;;;;;;3.42;1.30;;;18.20;38.70;;;;;;4838388;29;20175;-80
2021/03/09 21:06:17;;;;;;;3.53;1.38;;;18.20;38.80;;;;;;4846921;29;20169;-83
2021/03/09 21:08:52;;;;;;;1.90;1.10;;;18.20;38.60;;;;;;4846444;29;20176;-83
2021/03/09 21:11:27;;;;;;;1.63;1.23;;;18.10;39.30;;;;;;4831201;29;20196;-80
2021/03/09 21:13:53;;;;;;;1.38;1.20;;;18.00;38.90;;;;;;4846530;29;20176;-81
2021/03/09 21:16:19;;;;;;;2.47;1.20;;;18.00;39.40;;;;;;4863425;29;20224;-81
2021/03/09 21:18:45;;;;;;;3.08;1.30;;;18.00;38.80;;;;;;4831442;29;20671;-81
2021/03/09 21:21:11;;;;;;;2.90;1.27;;;18.00;38.90;;;;;;4862725;29;20214;-81
2021/03/09 21:23:37;;;;;;;2.42;1.50;;;18.00;38.70;;;;;;4831503;29;20188;-82
2021/03/09 21:26:05;;;;;;;3.58;1.48;;;18.10;38.10;;;;;;4831189;29;20547;-81
2021/03/09 21:28:33;;;;;;;1.40;1.20;;;18.10;38.80;;;;;;4846170;29;20167;-81
2021/03/09 21:31:00;;;;;;;2.40;1.20;;;18.00;38.60;;;;;;4830779;29;20196;-82
2021/03/09 21:33:32;;;;;;;3.03;1.65;;;18.00;39.20;;;;;;4830805;29;20699;-83
2021/03/09 21:35:59;;;;;;;2.85;1.30;;;18.00;38.70;;;;;;4846293;29;20161;-83
2021/03/09 21:38:25;;;;;;;1.55;1.30;;;18.00;38.70;;;;;;4862066;29;20625;-81
2021/03/09 21:40:52;;;;;;;1.52;1.27;;;18.00;39.00;;;;;;4830840;29;20173;-82
2021/03/09 21:43:19;;;;;;;1.80;1.38;;;18.00;38.60;;;;;;4830573;29;20177;-81
2021/03/09 21:45:46;;;;;;;7.00;1.60;;;18.00;38.80;;;;;;4862340;29;20193;-81
2021/03/09 21:48:12;;;;;;;2.38;1.23;;;18.00;38.20;;;;;;4845617;29;20251;-83
2021/03/09 21:50:39;;;;;;;2.22;1.40;;;18.00;38.50;;;;;;4845686;29;20256;-82
2021/03/09 21:53:06;;;;;;;2.75;1.33;;;18.00;38.90;;;;;;4845716;29;20161;-84
2021/03/09 21:55:33;;;;;;;2.28;1.20;;;17.90;38.80;;;;;;4831024;29;20168;-82
2021/03/09 21:58:00;;;;;;;1.60;1.40;;;17.90;39.00;;;;;;4846150;29;20206;-80
2021/03/09 22:00:25;;;;;;;2.15;1.55;;;17.80;38.90;;;;;;4830684;29;20199;-81
2021/03/09 22:03:01;;;;;;;1.65;1.10;;;17.80;39.10;;;;;;4830844;29;20196;-80
2021/03/09 22:05:29;;;;;;;1.63;1.40;;;17.80;39.20;;;;;;4845664;29;20646;-83
2021/03/09 22:08:03;;;;;;;3.50;1.23;;;17.70;39.50;;;;;;4863106;29;20172;-81